createdAt,value
2019-02-12T00:04:36.479Z,20.48
2019-02-12T00:09:42.765Z,17.73
2019-02-12T00:14:49.182Z,19.42
2019-02-12T00:19:55.435Z,19.92
2019-02-12T00:25:01.710Z,27.03
2019-02-12T00:30:10.764Z,19.37
2019-02-12T00:35:16.995Z,16.73
2019-02-12T00:40:23.262Z,18.67
2019-02-12T00:45:29.584Z,20.93
2019-02-12T00:50:35.914Z,19.23
2019-02-12T00:55:42.167Z,14.40
2019-02-12T01:00:48.435Z,21.83
2019-02-12T01:05:54.896Z,19.67
2019-02-12T01:11:02.962Z,19.17
2019-02-12T01:16:09.423Z,15.77
2019-02-12T01:21:15.851Z,19.57
2019-02-12T01:26:22.122Z,21.20
2019-02-12T01:31:30.235Z,19.83
2019-02-12T01:36:36.484Z,18.30
2019-02-12T01:41:42.711Z,18.97
2019-02-12T01:46:48.966Z,21.10
2019-02-12T01:51:55.220Z,20.83
2019-02-12T01:57:01.547Z,16.23
2019-02-12T02:02:07.855Z,19.47
2019-02-12T02:07:14.111Z,22.47
2019-02-12T02:12:20.338Z,13.70
2019-02-12T02:17:26.549Z,21.45
2019-02-12T02:22:32.787Z,28.00
2019-02-12T02:27:39.261Z,24.98
2019-02-12T02:32:45.521Z,24.05
2019-02-12T02:37:53.572Z,19.48
2019-02-12T02:42:59.841Z,17.73
2019-02-12T02:48:06.101Z,15.57
2019-02-12T02:53:12.389Z,24.53
2019-02-12T02:58:18.586Z,24.52
2019-02-12T03:03:24.891Z,19.03
2019-02-12T03:08:31.094Z,22.58
2019-02-12T03:13:37.401Z,18.98
2019-02-12T03:18:43.709Z,23.40
2019-02-12T03:23:49.970Z,22.43
2019-02-12T03:28:56.253Z,28.27
2019-02-12T03:34:02.453Z,26.90
2019-02-12T03:39:08.730Z,23.45
2019-02-12T03:44:14.959Z,23.70
2019-02-12T03:49:21.182Z,24.65
2019-02-12T03:54:27.559Z,17.37
2019-02-12T03:59:34.244Z,23.60
2019-02-12T04:04:40.628Z,18.57
2019-02-12T04:09:46.871Z,18.30
2019-02-12T04:14:53.142Z,25.07
2019-02-12T04:19:59.418Z,23.17
2019-02-12T04:25:05.810Z,20.30
2019-02-12T04:30:12.025Z,23.83
2019-02-12T04:35:18.287Z,19.12
2019-02-12T04:40:24.505Z,21.93
2019-02-12T04:45:30.706Z,20.80
2019-02-12T04:50:36.995Z,25.83
2019-02-12T04:55:43.181Z,21.17
2019-02-12T05:00:49.518Z,29.40
2019-02-12T05:05:55.811Z,20.15
2019-02-12T05:11:07.544Z,25.37
2019-02-12T05:16:13.772Z,25.40
2019-02-12T05:21:20.111Z,19.30
2019-02-12T05:26:26.310Z,23.12
2019-02-12T05:31:32.519Z,29.07
2019-02-12T05:36:38.755Z,22.07
2019-02-12T05:41:45.065Z,21.93
2019-02-12T05:46:51.399Z,23.00
2019-02-12T05:51:57.701Z,20.73
2019-02-12T05:57:05.767Z,21.83
2019-02-12T06:02:12.128Z,22.10
2019-02-12T06:07:18.452Z,30.57
2019-02-12T06:12:24.733Z,21.43
2019-02-12T06:17:31.034Z,25.80
2019-02-12T06:22:37.241Z,24.97
2019-02-12T06:27:43.464Z,21.43
2019-02-12T06:32:49.739Z,25.47
2019-02-12T06:37:55.978Z,16.37
2019-02-12T06:43:02.320Z,26.75
2019-02-12T06:48:08.550Z,24.43
2019-02-12T06:53:15.340Z,25.97
2019-02-12T06:58:21.658Z,21.17
2019-02-12T07:03:49.527Z,24.20
2019-02-12T07:09:21.472Z,22.83
2019-02-12T07:15:03.669Z,23.07
2019-02-12T07:20:23.194Z,24.07
2019-02-12T07:25:59.231Z,27.27
2019-02-12T07:31:34.666Z,29.25
2019-02-12T07:37:24.344Z,25.27
2019-02-12T07:43:07.017Z,30.03
2019-02-12T07:48:56.501Z,35.08
2019-02-12T07:54:29.682Z,28.87
2019-02-12T07:59:54.239Z,32.27
2019-02-12T08:05:44.108Z,33.00
2019-02-12T08:11:27.052Z,33.30
2019-02-12T08:17:13.273Z,27.77
2019-02-12T08:22:57.104Z,25.05
2019-02-12T08:28:27.202Z,33.87
2019-02-12T08:34:04.470Z,30.57
2019-02-12T08:39:43.421Z,31.82
2019-02-12T08:45:14.144Z,29.18
2019-02-12T08:51:04.385Z,29.90
2019-02-12T08:56:24.950Z,31.60
2019-02-12T09:02:20.762Z,31.35
2019-02-12T09:07:57.116Z,37.10
2019-02-12T09:13:36.914Z,36.83
2019-02-12T09:19:03.408Z,41.57
2019-02-12T09:24:25.888Z,47.25
2019-02-12T09:29:54.543Z,47.60
2019-02-12T09:36:05.879Z,51.77
2019-02-12T09:41:46.081Z,45.60
2019-02-12T09:47:23.974Z,50.35
2019-02-12T09:53:14.364Z,47.20
2019-02-12T09:59:04.542Z,44.50
2019-02-12T10:05:04.779Z,46.05
2019-02-12T10:10:45.672Z,40.07
2019-02-12T10:16:34.050Z,46.67
2019-02-12T10:22:06.976Z,40.00
2019-02-12T10:28:00.478Z,39.42
2019-02-12T10:33:06.771Z,40.47
2019-02-12T10:43:19.328Z,41.47
2019-02-12T10:48:25.740Z,41.90
2019-02-12T10:53:32.023Z,34.47
2019-02-12T10:58:38.307Z,33.33
2019-02-12T11:03:44.567Z,37.93
2019-02-12T11:08:50.993Z,33.43
2019-02-12T11:13:57.323Z,30.45
2019-02-12T11:19:03.590Z,30.20
2019-02-12T11:24:09.836Z,29.80
2019-02-12T11:29:17.104Z,23.57
2019-02-12T11:34:23.736Z,25.43
2019-02-12T11:39:30.035Z,26.93
2019-02-12T11:44:36.251Z,23.80
2019-02-12T11:49:43.550Z,26.93
2019-02-12T11:54:49.816Z,23.47
2019-02-12T11:59:56.090Z,21.60
2019-02-12T12:05:02.496Z,20.17
2019-02-12T12:10:10.023Z,24.13
2019-02-12T12:15:16.472Z,23.20
2019-02-12T12:20:22.759Z,20.65
2019-02-12T12:25:28.967Z,20.60
2019-02-12T12:30:35.222Z,21.02
2019-02-12T12:35:41.485Z,25.30
2019-02-12T12:40:47.707Z,21.77
2019-02-12T12:45:53.923Z,22.57
2019-02-12T12:51:00.141Z,19.03
2019-02-12T12:56:06.481Z,22.10
2019-02-12T13:01:12.763Z,25.15
2019-02-12T13:06:19.014Z,22.30
2019-02-12T13:11:26.628Z,21.05
2019-02-12T13:16:33.095Z,21.40
2019-02-12T13:21:39.390Z,21.25
2019-02-12T13:26:45.693Z,17.03
2019-02-12T13:31:51.925Z,23.13
2019-02-12T13:36:58.216Z,21.03
2019-02-12T13:42:04.436Z,23.37
2019-02-12T13:47:10.713Z,23.03
2019-02-12T13:52:17.039Z,28.20
2019-02-12T13:57:23.449Z,24.05
2019-02-12T14:02:29.703Z,20.50
2019-02-12T14:07:35.963Z,18.87
2019-02-12T14:12:42.175Z,20.37
2019-02-12T14:17:48.414Z,20.53
2019-02-12T14:22:54.649Z,19.47
2019-02-12T14:28:00.916Z,21.47
2019-02-12T14:33:07.140Z,21.57
2019-02-12T14:38:13.405Z,21.37
2019-02-12T14:43:19.677Z,16.87
2019-02-12T14:48:25.958Z,18.00
2019-02-12T14:53:32.207Z,18.50
2019-02-12T14:58:38.748Z,20.85
2019-02-12T15:03:45.012Z,17.10
2019-02-12T15:08:51.283Z,20.60
2019-02-12T15:13:57.678Z,16.50
2019-02-12T15:19:04.028Z,18.77
2019-02-12T15:24:11.243Z,16.30
2019-02-12T15:29:17.499Z,19.12
2019-02-12T15:34:23.746Z,15.93
2019-02-12T15:39:30.014Z,19.67
2019-02-12T15:44:36.270Z,20.47
2019-02-12T15:49:42.657Z,18.23
2019-02-12T15:54:48.935Z,17.00
2019-02-12T15:59:56.104Z,17.80
2019-02-12T16:05:02.384Z,17.98
2019-02-12T16:10:11.225Z,21.65
2019-02-12T16:15:21.112Z,20.57
2019-02-12T16:20:25.761Z,18.93
2019-02-12T16:25:33.842Z,19.57
2019-02-12T16:30:40.091Z,18.33
2019-02-12T16:35:46.302Z,19.63
2019-02-12T16:40:52.543Z,20.50
2019-02-12T16:46:05.309Z,21.20
2019-02-12T16:51:11.860Z,22.85
2019-02-12T16:56:18.145Z,21.03
2019-02-12T17:01:24.425Z,20.60
2019-02-12T17:06:30.688Z,19.17
2019-02-12T17:11:37.163Z,18.13
2019-02-12T17:16:43.524Z,17.60
2019-02-12T17:21:49.764Z,19.90
2019-02-12T17:26:56.090Z,20.23
2019-02-12T17:32:02.360Z,18.02
2019-02-12T17:37:08.765Z,22.90
2019-02-12T17:42:15.129Z,20.50
2019-02-12T17:47:21.544Z,20.57
2019-02-12T17:52:27.904Z,19.77
2019-02-12T17:57:34.279Z,21.73
2019-02-12T18:02:41.735Z,22.70
2019-02-12T18:07:48.085Z,25.97
2019-02-12T18:12:54.569Z,23.27
2019-02-12T18:18:01.178Z,20.57
2019-02-12T18:23:07.555Z,26.30
2019-02-12T18:28:13.978Z,23.73
2019-02-12T18:33:20.273Z,24.27
2019-02-12T18:38:26.527Z,17.92
2019-02-12T18:43:32.784Z,22.40
2019-02-12T18:48:39.204Z,22.27
2019-02-12T18:53:45.776Z,18.10
2019-02-12T18:58:54.820Z,16.60
2019-02-12T19:04:01.111Z,22.20
2019-02-12T19:09:12.679Z,18.93
2019-02-12T19:14:19.254Z,21.03
2019-02-12T19:19:25.709Z,17.50
2019-02-12T19:24:31.988Z,21.30
2019-02-12T19:29:38.242Z,22.70
2019-02-12T19:34:44.589Z,19.70
2019-02-12T19:39:50.860Z,19.53
2019-02-12T19:44:57.187Z,18.87
2019-02-12T19:50:04.919Z,16.85
2019-02-12T19:55:12.325Z,18.63
2019-02-12T20:00:20.032Z,16.57
2019-02-12T20:05:26.294Z,21.00
2019-02-12T20:10:32.763Z,18.57
2019-02-12T20:15:39.068Z,19.23
2019-02-12T20:20:45.362Z,19.73
2019-02-12T20:25:51.799Z,21.53
2019-02-12T20:30:58.164Z,19.83
2019-02-12T20:36:05.405Z,22.60
2019-02-12T20:41:11.709Z,22.48
2019-02-12T20:46:18.048Z,22.32
2019-02-12T20:51:24.350Z,21.02
2019-02-12T20:56:30.573Z,20.77
2019-02-12T21:01:36.845Z,20.13
2019-02-12T21:06:43.113Z,24.20
2019-02-12T21:11:49.413Z,24.00
2019-02-12T21:16:55.691Z,22.02
2019-02-12T21:22:02.044Z,23.77
2019-02-12T21:27:08.442Z,21.23
2019-02-12T21:32:14.828Z,25.17
2019-02-12T21:37:21.105Z,23.23
2019-02-12T21:42:27.440Z,23.40
2019-02-12T21:47:33.663Z,21.57
2019-02-12T21:52:39.880Z,24.87
2019-02-12T21:57:46.201Z,25.33
2019-02-12T22:02:52.491Z,25.97
2019-02-12T22:07:58.865Z,23.42
2019-02-12T22:13:06.112Z,23.62
2019-02-12T22:18:12.351Z,25.32
2019-02-12T22:23:18.554Z,24.37
2019-02-12T22:28:24.891Z,24.40
2019-02-12T22:33:31.097Z,25.03
2019-02-12T22:38:37.314Z,25.23
2019-02-12T22:43:43.602Z,24.23
2019-02-12T22:48:49.847Z,22.47
2019-02-12T22:53:56.149Z,22.93
2019-02-12T22:59:02.368Z,27.42
2019-02-12T23:04:08.610Z,24.97
2019-02-12T23:09:18.502Z,27.17
2019-02-12T23:14:24.753Z,25.07
2019-02-12T23:19:30.995Z,22.40
2019-02-12T23:24:37.224Z,26.00
2019-02-12T23:29:43.466Z,27.87
2019-02-12T23:34:56.965Z,24.37
2019-02-12T23:39:57.795Z,27.00
2019-02-12T23:45:04.136Z,25.87
2019-02-12T23:50:11.299Z,29.00
2019-02-12T23:55:17.536Z,25.20
